Time;durP1;ratioP1;P1;durP2;ratioP2;P2;SDS_P1;SDS_P2;PMS_P1;PMS_P2;Temp;Humidity;BMP_temperature;BMP_pressure;BME280_temperature;BME280_humidity;BME280_pressure;Samples;Min_cycle;Max_cycle;Signal;HPM_P1;HPM_P2
2022/09/17 00:00:22;;;;;;;13.60;1.90;;;12.70;99.90;;;;;;5009437;28;20124;-91
2022/09/17 00:02:54;;;;;;;20.35;1.88;;;12.30;99.90;;;;;;5025521;28;20068;-93
2022/09/17 00:05:22;;;;;;;13.75;1.77;;;11.70;99.90;;;;;;5022462;28;20037;-94
2022/09/17 00:07:49;;;;;;;19.70;2.90;;;12.40;99.90;;;;;;5033379;28;20088;-92
2022/09/17 00:10:16;;;;;;;10.43;4.50;;;11.60;99.90;;;;;;5013446;28;20083;-93
2022/09/17 00:12:41;;;;;;;14.70;2.63;;;12.10;99.90;;;;;;5016566;28;20045;-94
2022/09/17 00:15:08;;;;;;;12.00;2.25;;;11.60;99.90;;;;;;4997714;28;20052;-93
2022/09/17 00:17:34;;;;;;;8.93;1.65;;;11.60;99.90;;;;;;4998728;28;20384;-93
2022/09/17 00:19:59;;;;;;;13.93;1.92;;;12.10;99.90;;;;;;4997706;28;20037;-92
2022/09/17 00:22:25;;;;;;;13.50;1.85;;;11.50;99.90;;;;;;4997886;28;20103;-94
2022/09/17 00:24:51;;;;;;;8.98;1.63;;;11.50;99.90;;;;;;4999556;28;20044;-92
2022/09/17 00:27:16;;;;;;;13.63;1.55;;;12.30;99.90;;;;;;5029901;28;20084;-92
2022/09/17 00:29:42;;;;;;;8.02;2.35;;;12.00;99.90;;;;;;5033811;28;20063;-94
2022/09/17 00:32:08;;;;;;;13.90;2.05;;;11.30;99.90;;;;;;5030694;28;20063;-94
2022/09/17 00:34:34;;;;;;;12.00;1.85;;;11.20;99.90;;;;;;5031649;28;20104;-93
2022/09/17 00:37:00;;;;;;;10.13;2.20;;;11.10;99.90;;;;;;4997985;28;20048;-95
2022/09/17 00:39:25;;;;;;;12.15;2.15;;;10.90;99.90;;;;;;4997480;28;20095;-94
2022/09/17 00:41:51;;;;;;;8.95;1.42;;;10.50;99.90;;;;;;5031816;28;20044;-93
2022/09/17 00:44:52;;;;;;;12.93;1.77;;;11.90;99.90;;;;;;5029216;28;20113;-95
2022/09/17 00:47:18;;;;;;;10.48;1.42;;;10.70;99.90;;;;;;5014684;28;20041;-93
2022/09/17 00:49:45;;;;;;;13.32;2.22;;;10.60;99.90;;;;;;5013225;28;20446;-94
2022/09/17 00:52:22;;;;;;;14.50;2.30;;;10.60;99.90;;;;;;4996933;28;20075;-93
2022/09/17 00:55:01;;;;;;;18.92;2.65;;;10.50;99.90;;;;;;5015010;28;20103;-93
2022/09/17 00:57:28;;;;;;;15.02;1.92;;;10.60;99.90;;;;;;5011509;28;20045;-94
2022/09/17 00:59:55;;;;;;;14.75;2.72;;;11.40;99.90;;;;;;4998717;28;20132;-93
2022/09/17 01:02:21;;;;;;;17.13;1.83;;;11.40;99.90;;;;;;4996695;28;20079;-93
2022/09/17 01:04:46;;;;;;;15.13;1.80;;;11.60;99.90;;;;;;4997208;28;20040;-93
2022/09/17 01:07:35;;;;;;;9.68;1.73;;;11.60;99.90;;;;;;4997389;28;20136;-93
2022/09/17 01:10:17;;;;;;;25.23;2.88;;;10.50;99.90;;;;;;5011644;28;20055;-93
2022/09/17 01:13:00;;;;;;;17.75;1.83;;;10.50;99.90;;;;;;5014209;28;20041;-93
2022/09/17 01:15:44;;;;;;;13.32;2.40;;;10.50;99.90;;;;;;5013183;28;20128;-93
2022/09/17 01:18:14;;;;;;;18.38;1.83;;;10.50;99.90;;;;;;5012478;28;20087;-92
2022/09/17 01:20:49;;;;;;;17.48;2.15;;;10.80;99.90;;;;;;5014400;28;20083;-93
2022/09/17 01:23:32;;;;;;;22.67;2.20;;;10.50;99.90;;;;;;5029563;28;20053;-91
2022/09/17 01:26:26;;;;;;;19.98;4.07;;;10.50;99.90;;;;;;5033496;28;20044;-92
2022/09/17 01:29:10;;;;;;;16.75;1.95;;;10.60;99.90;;;;;;5033625;28;20075;-92
2022/09/17 01:31:53;;;;;;;18.83;2.65;;;10.80;99.90;;;;;;5031475;28;20108;-91
2022/09/17 01:34:24;;;;;;;18.92;2.10;;;10.70;99.90;;;;;;5034473;28;20086;-93
2022/09/17 01:37:04;;;;;;;19.58;2.78;;;10.70;99.90;;;;;;5031869;28;20048;-94
2022/09/17 01:39:59;;;;;;;24.20;3.50;;;10.70;99.90;;;;;;5034320;28;20052;-93
2022/09/17 01:42:36;;;;;;;26.55;3.30;;;10.90;99.90;;;;;;5031944;28;20055;-94
2022/09/17 01:45:16;;;;;;;18.67;2.30;;;10.90;99.90;;;;;;5031279;28;20139;-93
2022/09/17 01:47:56;;;;;;;21.13;2.88;;;10.90;99.90;;;;;;5033706;28;20096;-94
2022/09/17 01:50:30;;;;;;;11.18;2.25;;;11.00;99.90;;;;;;5033469;28;20049;-94
2022/09/17 01:52:57;;;;;;;23.58;2.85;;;10.90;99.90;;;;;;5031016;28;20047;-94
2022/09/17 01:55:31;;;;;;;13.82;1.95;;;12.20;99.90;;;;;;5019919;28;20044;-95
2022/09/17 01:58:00;;;;;;;15.15;3.42;;;12.20;99.90;;;;;;5034295;28;20040;-95
2022/09/17 02:00:26;;;;;;;18.88;2.83;;;10.00;99.90;;;;;;5035704;28;20036;-95
2022/09/17 02:02:58;;;;;;;14.63;2.33;;;10.80;99.90;;;;;;5036301;28;20037;-95
2022/09/17 02:05:27;;;;;;;23.33;2.88;;;11.60;99.90;;;;;;5032824;28;20500;-95
2022/09/17 02:08:03;;;;;;;15.55;2.00;;;10.70;99.90;;;;;;5034713;28;20048;-95
2022/09/17 02:10:33;;;;;;;19.13;2.25;;;12.00;99.90;;;;;;5031984;28;20047;-95
2022/09/17 02:13:07;;;;;;;15.75;2.13;;;10.70;99.90;;;;;;5034739;28;20041;-95
2022/09/17 02:15:34;;;;;;;;;;;10.50;99.90;;;;;;5033697;28;20037;-95
2022/09/17 02:18:37;;;;;;;18.23;2.28;;;11.40;99.90;;;;;;5032341;28;20019;-94
2022/09/17 02:21:14;;;;;;;13.60;1.90;;;10.40;99.90;;;;;;5027401;28;20063;-95
2022/09/17 02:24:11;;;;;;;13.55;1.95;;;10.40;99.90;;;;;;5012517;28;20049;-94
2022/09/17 02:26:45;;;;;;;10.45;1.52;;;10.40;99.90;;;;;;5013584;28;20041;-95
2022/09/17 02:29:38;;;;;;;13.88;2.13;;;10.40;99.90;;;;;;5020622;28;20045;-96
2022/09/17 02:32:05;;;;;;;10.93;1.67;;;10.50;99.90;;;;;;5012739;28;20127;-93
2022/09/17 02:34:31;;;;;;;11.25;1.63;;;10.60;99.90;;;;;;5017633;28;20049;-96
2022/09/17 02:36:58;;;;;;;10.00;1.17;;;10.70;99.90;;;;;;5013294;28;20044;-94
2022/09/17 02:39:24;;;;;;;18.95;2.92;;;11.80;99.90;;;;;;5012656;28;20036;-94
2022/09/17 02:42:10;;;;;;;12.23;2.60;;;12.10;99.90;;;;;;4996615;28;20045;-94
2022/09/17 02:44:59;;;;;;;15.60;2.65;;;10.60;99.90;;;;;;4990480;28;20119;-94
2022/09/17 02:48:09;;;;;;;12.10;2.20;;;10.60;99.90;;;;;;5013325;28;20037;-94
2022/09/17 02:51:02;;;;;;;17.70;3.45;;;10.50;99.90;;;;;;4976605;28;20081;-95
2022/09/17 02:53:43;;;;;;;18.03;2.80;;;10.50;99.90;;;;;;5031068;28;20124;-95
2022/09/17 02:56:24;;;;;;;13.23;1.75;;;10.60;99.90;;;;;;5017224;28;20832;-94
2022/09/17 02:59:03;;;;;;;8.48;1.50;;;10.60;99.90;;;;;;5017004;28;20104;-94
2022/09/17 03:01:38;;;;;;;12.18;1.83;;;10.60;99.90;;;;;;5021839;28;20037;-93
2022/09/17 03:04:08;;;;;;;14.40;2.13;;;10.80;99.90;;;;;;5040059;28;20044;-95
2022/09/17 03:06:34;;;;;;;19.35;2.22;;;10.60;99.90;;;;;;5038206;28;20037;-95
2022/09/17 03:09:00;;;;;;;17.02;2.65;;;10.90;99.90;;;;;;5023978;28;20062;-95
2022/09/17 03:11:26;;;;;;;17.38;1.73;;;11.00;99.90;;;;;;5023111;28;20039;-94
2022/09/17 03:13:52;;;;;;;16.73;2.58;;;11.80;99.90;;;;;;5020186;28;20037;-94
2022/09/17 03:16:17;;;;;;;11.73;2.13;;;10.70;99.90;;;;;;5023592;28;20040;-95
2022/09/17 03:18:43;;;;;;;17.88;2.17;;;10.40;99.90;;;;;;5021438;28;20029;-96
2022/09/17 03:21:10;;;;;;;15.23;2.05;;;10.40;99.90;;;;;;5022837;28;20592;-95
2022/09/17 03:23:36;;;;;;;14.68;2.30;;;10.60;99.90;;;;;;5036790;28;20044;-95
2022/09/17 03:26:02;;;;;;;10.90;1.73;;;10.60;99.90;;;;;;5037317;28;20063;-94
2022/09/17 03:28:27;;;;;;;7.20;1.30;;;11.10;99.90;;;;;;5046507;28;20055;-95
2022/09/17 03:30:53;;;;;;;14.00;2.67;;;10.20;99.90;;;;;;5020011;28;20033;-94
2022/09/17 03:33:19;;;;;;;10.43;1.50;;;11.20;99.90;;;;;;5054085;28;20051;-95
2022/09/17 03:35:46;;;;;;;13.20;1.85;;;10.90;99.90;;;;;;5019133;28;20036;-95
2022/09/17 03:38:12;;;;;;;7.90;1.58;;;11.00;99.90;;;;;;5021063;28;20471;-95
2022/09/17 03:40:39;;;;;;;17.50;1.98;;;11.50;99.90;;;;;;5018729;28;20050;-96
2022/09/17 03:43:05;;;;;;;17.67;1.77;;;11.00;99.90;;;;;;5021015;28;20041;-93
2022/09/17 03:45:31;;;;;;;11.75;1.33;;;10.90;99.90;;;;;;5018411;28;20047;-95
2022/09/17 03:47:56;;;;;;;13.55;1.65;;;11.00;99.90;;;;;;5018358;28;20601;-93
2022/09/17 03:50:22;;;;;;;12.93;1.20;;;10.60;99.90;;;;;;5018709;28;20464;-93
2022/09/17 03:52:48;;;;;;;10.75;1.23;;;10.60;99.90;;;;;;5017382;28;20043;-93
2022/09/17 03:55:15;;;;;;;11.10;1.35;;;11.70;99.90;;;;;;5019082;28;20403;-93
2022/09/17 03:57:40;;;;;;;10.13;1.65;;;10.60;99.90;;;;;;5033198;28;20040;-93
2022/09/17 04:00:07;;;;;;;13.13;1.83;;;11.40;99.90;;;;;;5034987;28;20043;-92
2022/09/17 04:02:33;;;;;;;12.15;1.77;;;10.50;99.90;;;;;;5020294;28;20131;-94
2022/09/17 04:04:59;;;;;;;11.60;1.60;;;10.40;99.90;;;;;;5051442;28;20135;-93
2022/09/17 04:07:25;;;;;;;15.43;1.65;;;10.40;99.90;;;;;;5018597;28;20048;-93
2022/09/17 04:09:50;;;;;;;11.63;1.70;;;10.30;99.90;;;;;;5016996;28;20067;-93
2022/09/17 04:12:16;;;;;;;10.98;1.45;;;10.20;99.90;;;;;;5035377;28;20033;-94
2022/09/17 04:14:41;;;;;;;8.23;1.50;;;10.10;99.90;;;;;;5016433;28;20037;-92
2022/09/17 04:17:07;;;;;;;14.80;3.47;;;10.30;99.90;;;;;;5018533;28;20485;-93
2022/09/17 04:19:33;;;;;;;9.77;1.63;;;10.80;99.90;;;;;;5016262;28;20036;-93
2022/09/17 04:21:59;;;;;;;16.45;2.65;;;10.50;99.90;;;;;;5017376;28;20087;-93
2022/09/17 04:24:24;;;;;;;11.48;1.40;;;11.10;99.90;;;;;;5017342;28;20098;-93
2022/09/17 04:26:50;;;;;;;16.55;1.58;;;10.00;99.90;;;;;;5017000;28;20045;-93
2022/09/17 04:29:16;;;;;;;11.73;1.98;;;11.00;99.90;;;;;;5017629;28;20041;-94
2022/09/17 04:31:41;;;;;;;10.73;1.30;;;10.00;99.90;;;;;;5015896;28;20070;-92
2022/09/17 04:34:07;;;;;;;12.45;1.75;;;10.70;99.90;;;;;;5018835;28;20036;-93
2022/09/17 04:36:33;;;;;;;11.68;1.35;;;10.10;99.90;;;;;;5016287;28;20129;-94
2022/09/17 04:38:59;;;;;;;16.60;1.83;;;11.40;99.90;;;;;;5017682;28;20037;-92
2022/09/17 04:41:24;;;;;;;27.08;2.33;;;10.90;99.90;;;;;;5017082;28;20678;-94
2022/09/17 04:43:50;;;;;;;13.38;1.75;;;10.20;99.90;;;;;;5017018;28;20144;-93
2022/09/17 04:46:16;;;;;;;16.25;1.85;;;10.00;99.90;;;;;;5017455;28;20123;-92
2022/09/17 04:48:42;;;;;;;20.13;1.67;;;10.00;99.90;;;;;;5015962;28;20040;-92
2022/09/17 04:51:08;;;;;;;12.68;2.20;;;10.00;99.90;;;;;;5018386;28;20036;-95
2022/09/17 04:53:34;;;;;;;20.20;2.42;;;11.00;99.90;;;;;;5016124;28;20070;-94
2022/09/17 04:55:59;;;;;;;8.82;0.98;;;10.90;99.90;;;;;;5051363;28;20040;-93
2022/09/17 04:58:25;;;;;;;21.25;2.20;;;10.00;99.90;;;;;;5017363;28;20050;-92
2022/09/17 05:00:51;;;;;;;5.78;1.33;;;10.90;99.90;;;;;;5050532;28;20044;-93
2022/09/17 05:03:17;;;;;;;9.10;0.98;;;11.20;99.90;;;;;;5017656;28;20069;-95
2022/09/17 05:05:45;;;;;;;13.23;1.42;;;9.80;99.90;;;;;;5033740;28;20063;-92
2022/09/17 05:08:11;;;;;;;18.40;2.10;;;10.20;99.90;;;;;;5018178;28;20040;-94
2022/09/17 05:10:37;;;;;;;10.23;2.40;;;10.10;99.90;;;;;;5016417;28;20129;-94
2022/09/17 05:13:02;;;;;;;12.75;2.17;;;9.70;99.90;;;;;;5018068;28;20041;-92
2022/09/17 05:15:28;;;;;;;16.17;1.38;;;10.50;99.90;;;;;;5016412;28;20040;-93
2022/09/17 05:17:54;;;;;;;19.02;1.60;;;9.80;99.90;;;;;;5034684;28;20070;-91
2022/09/17 05:20:19;;;;;;;8.07;1.88;;;10.50;99.90;;;;;;5018930;28;20083;-94
2022/09/17 05:22:50;;;;;;;12.70;1.35;;;10.20;99.90;;;;;;5020077;28;20052;-93
2022/09/17 05:25:19;;;;;;;14.70;2.28;;;10.90;99.90;;;;;;5039754;28;20041;-95
2022/09/17 05:27:45;;;;;;;13.10;1.35;;;10.50;99.90;;;;;;5040463;28;20040;-95
2022/09/17 05:30:11;;;;;;;14.65;1.77;;;11.30;99.90;;;;;;5044170;28;20100;-94
2022/09/17 05:32:39;;;;;;;10.07;1.98;;;10.20;99.90;;;;;;5027699;28;20040;-94
2022/09/17 05:35:06;;;;;;;13.95;1.58;;;10.50;99.90;;;;;;5043463;28;20040;-93
2022/09/17 05:37:32;;;;;;;18.92;2.22;;;10.40;99.90;;;;;;5026059;28;20049;-93
2022/09/17 05:39:58;;;;;;;11.90;1.17;;;10.90;99.90;;;;;;5021490;28;20497;-93
2022/09/17 05:42:23;;;;;;;8.95;1.20;;;10.80;99.90;;;;;;5019378;28;20044;-93
2022/09/17 05:44:49;;;;;;;9.95;1.40;;;10.90;99.90;;;;;;5016847;28;20040;-95
2022/09/17 05:47:15;;;;;;;12.45;1.48;;;12.30;99.90;;;;;;5020143;28;20072;-94
2022/09/17 05:49:41;;;;;;;14.00;1.85;;;11.10;99.90;;;;;;5016257;28;20131;-92
2022/09/17 05:52:06;;;;;;;11.35;1.55;;;11.20;99.90;;;;;;5017075;28;20037;-94
2022/09/17 05:54:32;;;;;;;13.45;1.60;;;12.40;99.90;;;;;;5033016;28;20036;-92
2022/09/17 05:56:58;;;;;;;12.75;1.95;;;11.60;99.90;;;;;;5031651;28;20097;-89
2022/09/17 05:59:23;;;;;;;21.75;2.83;;;11.80;99.90;;;;;;5017182;28;20044;-95
2022/09/17 06:01:49;;;;;;;11.32;1.92;;;11.20;99.90;;;;;;5018349;28;20519;-95
2022/09/17 06:04:16;;;;;;;19.73;2.92;;;11.30;99.90;;;;;;5025813;28;20044;-91
2022/09/17 06:06:42;;;;;;;10.52;1.40;;;11.40;99.90;;;;;;5021382;28;20032;-95
2022/09/17 06:09:09;;;;;;;8.85;1.95;;;12.60;99.90;;;;;;5034278;28;20048;-94
2022/09/17 06:11:36;;;;;;;13.05;1.27;;;11.40;99.90;;;;;;5039531;28;20461;-96
2022/09/17 06:14:03;;;;;;;7.63;1.27;;;11.30;99.90;;;;;;5044552;28;20060;-96
2022/09/17 06:16:42;;;;;;;8.85;0.95;;;11.10;99.90;;;;;;5052032;28;20048;-96
2022/09/17 06:19:08;;;;;;;9.35;1.25;;;10.50;99.90;;;;;;5007126;28;20578;-96
2022/09/17 06:21:33;;;;;;;13.13;1.00;;;10.80;99.90;;;;;;5011168;28;20053;-95
2022/09/17 06:24:00;;;;;;;6.75;0.80;;;10.70;99.90;;;;;;5014470;28;20051;-96
2022/09/17 06:26:26;;;;;;;12.05;1.45;;;10.50;99.90;;;;;;5012695;28;20057;-95
2022/09/17 06:28:52;;;;;;;11.07;1.63;;;10.50;99.90;;;;;;5027007;28;20603;-96
2022/09/17 06:31:35;;;;;;;9.45;1.13;;;10.90;99.90;;;;;;4966067;29;20071;-95
2022/09/17 06:34:01;;;;;;;12.52;1.73;;;10.50;99.90;;;;;;4962190;29;20047;-96
2022/09/17 06:36:33;;;;;;;17.13;1.85;;;10.70;99.90;;;;;;4927426;29;20059;-96
2022/09/17 06:38:59;;;;;;;8.73;0.95;;;10.70;99.90;;;;;;4922978;29;20047;-96
2022/09/17 06:41:29;;;;;;;6.38;1.38;;;10.80;99.90;;;;;;4964658;29;20055;-96
2022/09/17 06:43:55;;;;;;;10.27;1.77;;;10.80;99.90;;;;;;4981195;28;20057;-96
2022/09/17 06:46:22;;;;;;;10.45;1.02;;;10.90;99.90;;;;;;4977654;28;20065;-96
2022/09/17 06:48:48;;;;;;;5.63;1.10;;;12.10;99.90;;;;;;4968193;28;20054;-94
2022/09/17 06:51:14;;;;;;;10.45;1.20;;;11.20;99.90;;;;;;4921020;29;20080;-93
2022/09/17 06:53:40;;;;;;;10.98;1.35;;;11.30;99.90;;;;;;4901650;29;20082;-90
2022/09/17 06:56:07;;;;;;;6.00;1.65;;;11.40;99.90;;;;;;4966921;28;20959;-92
2022/09/17 06:58:40;;;;;;;11.75;1.55;;;11.40;99.90;;;;;;4967758;28;20047;-92
2022/09/17 07:01:05;;;;;;;8.93;0.95;;;11.40;99.90;;;;;;4920308;29;20055;-95
2022/09/17 07:03:31;;;;;;;10.35;1.92;;;12.00;99.90;;;;;;4986714;28;20068;-93
2022/09/17 07:05:57;;;;;;;8.52;1.45;;;12.40;99.90;;;;;;5028836;28;20041;-94
2022/09/17 07:08:33;;;;;;;10.60;1.13;;;11.60;99.90;;;;;;5000990;28;20045;-94
2022/09/17 07:10:59;;;;;;;16.05;1.52;;;11.80;99.90;;;;;;5035071;28;20562;-93
2022/09/17 07:13:25;;;;;;;11.65;2.78;;;12.00;99.90;;;;;;5035965;28;20041;-92
2022/09/17 07:15:56;;;;;;;20.02;2.70;;;12.30;99.90;;;;;;5034332;28;20048;-91
2022/09/17 07:18:22;;;;;;;19.83;2.28;;;12.20;99.90;;;;;;5021641;28;20511;-95
2022/09/17 07:20:53;;;;;;;13.23;2.15;;;12.20;99.90;;;;;;5020640;28;20128;-92
2022/09/17 07:23:23;;;;;;;20.30;1.90;;;12.10;99.90;;;;;;5018456;28;20059;-89
2022/09/17 07:25:53;;;;;;;16.02;2.10;;;12.00;99.90;;;;;;5035810;28;20127;-95
2022/09/17 07:28:19;;;;;;;13.57;1.17;;;12.00;99.90;;;;;;5051204;28;20080;-94
2022/09/17 07:30:45;;;;;;;8.88;1.65;;;11.90;99.90;;;;;;5018985;28;20087;-92
2022/09/17 07:33:11;;;;;;;18.75;1.90;;;11.90;99.90;;;;;;5050926;28;20072;-95
2022/09/17 07:35:37;;;;;;;6.57;1.13;;;12.00;99.90;;;;;;5051772;28;20106;-96
2022/09/17 07:38:03;;;;;;;9.30;1.20;;;13.40;99.90;;;;;;5019583;28;20044;-95
2022/09/17 07:40:29;;;;;;;14.27;3.15;;;12.20;99.90;;;;;;5036653;28;20123;-92
2022/09/17 07:42:57;;;;;;;10.00;1.52;;;13.50;99.90;;;;;;5018567;28;20128;-89
2022/09/17 07:45:23;;;;;;;9.57;1.45;;;12.60;99.90;;;;;;5033402;28;20048;-82
2022/09/17 07:47:49;;;;;;;10.07;1.48;;;12.90;99.90;;;;;;5050852;28;20052;-87
2022/09/17 07:50:15;;;;;;;11.10;1.90;;;13.50;99.90;;;;;;5017261;28;20552;-93
2022/09/17 07:52:47;;;;;;;6.32;1.25;;;13.30;99.90;;;;;;5019903;28;20127;-94
2022/09/17 07:55:14;;;;;;;8.77;0.95;;;13.30;99.90;;;;;;5051055;28;20049;-92
2022/09/17 07:57:40;;;;;;;5.95;0.85;;;13.20;99.90;;;;;;5035187;28;20389;-91
2022/09/17 08:00:06;;;;;;;10.45;2.58;;;13.00;99.90;;;;;;5017930;28;20040;-90
2022/09/17 08:02:32;;;;;;;5.03;0.98;;;12.70;99.90;;;;;;5032590;28;20040;-89
2022/09/17 08:04:58;;;;;;;5.35;1.75;;;12.60;99.90;;;;;;5050499;28;20051;-85
2022/09/17 08:07:24;;;;;;;11.60;1.00;;;13.40;99.90;;;;;;5049287;28;20395;-87
2022/09/17 08:09:50;;;;;;;7.75;1.00;;;12.70;99.90;;;;;;5050093;28;20129;-85
2022/09/17 08:12:17;;;;;;;7.88;0.85;;;12.40;99.90;;;;;;5066641;28;20036;-85
2022/09/17 08:14:43;;;;;;;8.70;1.20;;;12.60;99.90;;;;;;5033193;28;20056;-85
2022/09/17 08:17:08;;;;;;;4.57;1.58;;;13.60;99.90;;;;;;5032449;28;20041;-81
2022/09/17 08:19:34;;;;;;;16.83;2.03;;;12.90;99.90;;;;;;5048557;28;20046;-85
2022/09/17 08:22:00;;;;;;;8.32;2.28;;;13.00;99.90;;;;;;5049250;28;20106;-85
2022/09/17 08:24:26;;;;;;;14.45;1.88;;;13.20;99.90;;;;;;5031936;28;20131;-85
2022/09/17 08:26:52;;;;;;;13.98;1.90;;;13.30;99.90;;;;;;5033149;28;20066;-85
2022/09/17 08:29:18;;;;;;;11.38;1.50;;;13.40;99.90;;;;;;5031663;28;20048;-84
2022/09/17 08:31:43;;;;;;;11.35;1.67;;;13.80;99.90;;;;;;5016299;28;20033;-84
2022/09/17 08:34:10;;;;;;;7.65;1.23;;;13.80;99.90;;;;;;5048473;28;20179;-83
2022/09/17 08:36:36;;;;;;;5.85;0.90;;;13.80;99.90;;;;;;5032184;28;20498;-83
2022/09/17 08:39:02;;;;;;;3.00;0.93;;;14.00;99.90;;;;;;5049094;28;20123;-85
2022/09/17 08:41:47;;;;;;;10.88;1.25;;;14.10;99.90;;;;;;5048485;28;20043;-84
2022/09/17 08:44:19;;;;;;;4.60;1.30;;;14.30;99.90;;;;;;5048969;28;20145;-86
2022/09/17 08:46:49;;;;;;;13.32;1.52;;;14.60;99.90;;;;;;5047669;28;20052;-84
2022/09/17 08:49:43;;;;;;;13.32;3.08;;;14.70;99.90;;;;;;5066295;28;20622;-86
2022/09/17 08:52:21;;;;;;;9.88;1.13;;;14.80;99.90;;;;;;5032685;28;20476;-86
2022/09/17 08:55:20;;;;;;;9.55;0.85;;;14.50;99.90;;;;;;5031240;28;20554;-85
2022/09/17 08:58:10;;;;;;;7.75;0.85;;;14.00;99.90;;;;;;5048641;28;20114;-85
2022/09/17 09:00:57;;;;;;;5.13;0.68;;;13.40;99.90;;;;;;5048899;28;20056;-83
2022/09/17 09:03:41;;;;;;;5.03;0.63;;;13.10;99.90;;;;;;5031020;28;20045;-84
2022/09/17 09:06:07;;;;;;;5.97;0.85;;;12.70;99.90;;;;;;5048976;28;20445;-84
2022/09/17 09:08:45;;;;;;;3.80;0.50;;;12.90;99.90;;;;;;5066528;28;20043;-84
2022/09/17 09:11:15;;;;;;;5.75;0.88;;;12.50;99.90;;;;;;5048376;28;20071;-84
2022/09/17 09:13:48;;;;;;;11.73;1.23;;;12.40;99.90;;;;;;5032593;28;20056;-84
2022/09/17 09:16:36;;;;;;;6.53;0.95;;;12.40;99.90;;;;;;5047481;28;20471;-84
2022/09/17 09:19:32;;;;;;;8.07;1.42;;;12.40;99.90;;;;;;5031371;28;20519;-84
2022/09/17 09:22:13;;;;;;;10.18;0.88;;;12.30;99.90;;;;;;5048956;28;20056;-84
2022/09/17 09:24:50;;;;;;;10.30;0.93;;;12.30;99.90;;;;;;5047179;28;20496;-84
2022/09/17 09:27:20;;;;;;;12.85;2.15;;;12.40;99.90;;;;;;5048503;28;20170;-84
2022/09/17 09:30:09;;;;;;;9.95;1.70;;;12.50;99.90;;;;;;5031827;28;20447;-87
2022/09/17 09:32:57;;;;;;;8.30;0.75;;;12.20;99.90;;;;;;5030436;28;20555;-84
2022/09/17 09:35:30;;;;;;;5.13;0.73;;;11.70;99.90;;;;;;5048496;28;20132;-84
2022/09/17 09:38:08;;;;;;;7.35;0.70;;;11.40;99.90;;;;;;5047252;28;20044;-84
2022/09/17 09:40:55;;;;;;;5.60;0.73;;;11.70;99.90;;;;;;5047851;28;20049;-84
2022/09/17 09:43:33;;;;;;;6.25;1.00;;;11.00;99.90;;;;;;5052837;28;20044;-83
2022/09/17 09:46:02;;;;;;;5.50;0.85;;;10.90;99.90;;;;;;5070391;28;20346;-84
2022/09/17 09:48:50;;;;;;;7.13;1.05;;;10.90;99.90;;;;;;5038110;28;20037;-84
2022/09/17 09:51:28;;;;;;;7.03;0.77;;;11.00;99.90;;;;;;5072246;28;20098;-84
2022/09/17 09:54:16;;;;;;;6.95;2.38;;;11.10;99.90;;;;;;5052931;28;20479;-81
2022/09/17 09:56:55;;;;;;;2.40;0.60;;;11.20;99.90;;;;;;5054407;28;20051;-84
2022/09/17 09:59:27;;;;;;;10.85;1.60;;;11.40;99.90;;;;;;5076004;28;20044;-85
2022/09/17 10:01:54;;;;;;;16.38;2.55;;;11.70;99.90;;;;;;5058565;28;20241;-84
2022/09/17 10:04:26;;;;;;;7.05;1.45;;;11.80;99.90;;;;;;5075348;28;20127;-83
2022/09/17 10:06:58;;;;;;;8.35;1.15;;;11.90;99.90;;;;;;5040505;28;20060;-85
2022/09/17 10:09:26;;;;;;;9.02;1.10;;;12.10;99.90;;;;;;5053622;28;20045;-85
2022/09/17 10:12:15;;;;;;;14.98;1.77;;;12.30;99.90;;;;;;5052601;28;20487;-87
2022/09/17 10:14:43;;;;;;;14.20;1.88;;;12.40;99.90;;;;;;5053300;28;20098;-86
2022/09/17 10:17:25;;;;;;;16.25;3.25;;;12.50;99.90;;;;;;5036997;28;20500;-87
2022/09/17 10:20:12;;;;;;;15.15;2.13;;;12.50;99.90;;;;;;5036306;28;20407;-87
2022/09/17 10:22:39;;;;;;;9.30;1.25;;;13.20;99.90;;;;;;5035737;28;20402;-85
2022/09/17 10:25:17;;;;;;;12.35;1.73;;;12.30;99.90;;;;;;5052057;28;20102;-86
2022/09/17 10:27:45;;;;;;;11.40;1.65;;;12.10;99.90;;;;;;5052668;28;20032;-86
2022/09/17 10:30:11;;;;;;;11.02;1.85;;;12.00;99.90;;;;;;5035380;28;20091;-83
2022/09/17 10:32:37;;;;;;;9.68;2.17;;;12.10;99.90;;;;;;5036609;28;20080;-92
2022/09/17 10:35:14;;;;;;;8.00;1.63;;;12.20;99.90;;;;;;5053327;28;20041;-87
2022/09/17 10:37:42;;;;;;;13.50;2.83;;;12.20;99.90;;;;;;5052309;28;20040;-87
2022/09/17 10:40:26;;;;;;;17.40;2.78;;;13.20;99.90;;;;;;5052881;28;20072;-86
2022/09/17 10:43:10;;;;;;;16.77;1.77;;;12.80;99.90;;;;;;5035988;28;20376;-88
2022/09/17 10:45:40;;;;;;;20.55;2.15;;;13.20;99.90;;;;;;5052646;28;20468;-88
2022/09/17 10:48:17;;;;;;;12.68;1.90;;;13.60;99.90;;;;;;5052066;28;20104;-88
2022/09/17 10:50:52;;;;;;;8.73;2.00;;;13.90;99.90;;;;;;5046856;28;20040;-89
2022/09/17 10:53:22;;;;;;;14.20;1.65;;;14.30;99.90;;;;;;5038385;28;20045;-92
2022/09/17 10:56:09;;;;;;;13.02;1.45;;;14.60;99.90;;;;;;5044485;28;20051;-91
2022/09/17 10:59:03;;;;;;;15.82;1.95;;;14.70;99.90;;;;;;5041100;28;20049;-89
2022/09/17 11:02:07;;;;;;;11.55;2.30;;;15.20;99.90;;;;;;5045121;28;20049;-86
2022/09/17 11:04:54;;;;;;;11.18;1.95;;;14.90;99.90;;;;;;5062436;28;20508;-90
2022/09/17 11:07:38;;;;;;;9.23;1.33;;;15.10;99.90;;;;;;5048070;28;20048;-89
2022/09/17 11:10:16;;;;;;;9.07;1.27;;;15.30;99.90;;;;;;5040185;28;20040;-86
2022/09/17 11:13:01;;;;;;;17.77;1.90;;;15.50;99.90;;;;;;5070338;28;20098;-86
2022/09/17 11:15:39;;;;;;;11.07;1.17;;;15.50;99.90;;;;;;5040652;28;20123;-90
2022/09/17 11:18:33;;;;;;;14.43;1.63;;;15.50;99.90;;;;;;5054467;28;20186;-87
2022/09/17 11:21:07;;;;;;;13.38;1.65;;;15.50;99.90;;;;;;5043966;28;20051;-85
2022/09/17 11:23:57;;;;;;;14.38;1.65;;;15.60;99.90;;;;;;5042402;28;20056;-89
2022/09/17 11:27:04;;;;;;;11.23;1.27;;;15.70;99.90;;;;;;5042157;28;20550;-89
2022/09/17 11:30:00;;;;;;;7.57;0.90;;;15.70;99.90;;;;;;5060729;28;20065;-90
2022/09/17 11:33:03;;;;;;;17.25;1.65;;;15.80;99.90;;;;;;5041886;28;20053;-88
2022/09/17 11:35:35;;;;;;;;;;;15.90;99.90;;;;;;5045105;28;20482;-89
2022/09/17 11:38:32;;;;;;;9.88;1.42;;;16.10;99.90;;;;;;5045825;28;19925;-89
2022/09/17 11:41:15;;;;;;;10.65;1.63;;;16.30;99.90;;;;;;5043325;28;20071;-90
2022/09/17 11:43:53;;;;;;;11.32;1.33;;;16.40;99.90;;;;;;5043957;28;20044;-90
2022/09/17 11:46:28;;;;;;;15.55;2.22;;;16.40;99.90;;;;;;5045181;28;20484;-89
2022/09/17 11:49:05;;;;;;;17.52;2.40;;;16.50;99.90;;;;;;5044969;28;20074;-92
2022/09/17 11:51:33;;;;;;;12.23;2.03;;;16.50;99.90;;;;;;5044951;28;20523;-93
2022/09/17 11:54:18;;;;;;;13.60;2.35;;;16.70;99.90;;;;;;5060357;28;20127;-92
2022/09/17 11:56:48;;;;;;;8.30;1.80;;;17.10;99.90;;;;;;5042906;28;20044;-88
2022/09/17 11:59:30;;;;;;;14.98;2.42;;;17.00;99.90;;;;;;5042810;28;20049;-91
2022/09/17 12:02:01;;;;;;;7.50;1.30;;;16.80;99.90;;;;;;5043488;28;20041;-95
2022/09/17 12:04:46;;;;;;;8.45;1.45;;;16.60;99.90;;;;;;5045514;28;20127;-95
2022/09/17 12:07:24;;;;;;;8.18;1.77;;;16.40;99.90;;;;;;5059902;28;20502;-91
2022/09/17 12:09:58;;;;;;;11.77;1.40;;;16.40;99.90;;;;;;5040827;28;20087;-91
2022/09/17 12:12:26;;;;;;;4.97;1.10;;;16.40;99.90;;;;;;5029005;28;20045;-89
2022/09/17 12:15:22;;;;;;;11.38;2.00;;;16.40;99.90;;;;;;5042094;28;20130;-90
2022/09/17 12:18:21;;;;;;;11.18;1.48;;;16.30;99.90;;;;;;5040061;28;20057;-89
2022/09/17 12:20:51;;;;;;;12.32;1.88;;;16.40;99.90;;;;;;5027041;28;20052;-93
2022/09/17 12:23:36;;;;;;;9.60;1.60;;;16.70;99.90;;;;;;5023969;28;20059;-88
2022/09/17 12:26:22;;;;;;;13.88;1.90;;;16.80;99.90;;;;;;5041708;28;20064;-96
2022/09/17 12:29:32;;;;;;;7.97;1.52;;;16.50;99.90;;;;;;5042539;28;20113;-93
2022/09/17 12:32:16;;;;;;;4.00;0.55;;;16.20;99.90;;;;;;5027223;28;20132;-96
2022/09/17 12:34:52;;;;;;;6.82;1.05;;;16.20;99.90;;;;;;5044641;28;20041;-95
2022/09/17 12:37:33;;;;;;;9.10;0.93;;;16.30;99.90;;;;;;5033364;28;20041;-94
2022/09/17 12:40:31;;;;;;;8.05;1.55;;;16.50;99.90;;;;;;5037162;28;20105;-94
2022/09/17 12:43:38;;;;;;;11.43;2.10;;;16.70;99.90;;;;;;5035152;28;20044;-95
2022/09/17 12:46:12;;;;;;;4.32;0.80;;;16.90;99.90;;;;;;5022034;28;20053;-95
2022/09/17 12:48:37;;;;;;;10.90;2.00;;;16.70;99.90;;;;;;5038471;28;20029;-93
2022/09/17 12:51:32;;;;;;;10.90;1.45;;;16.40;99.90;;;;;;5037461;28;20042;-93
2022/09/17 12:54:19;;;;;;;9.77;1.02;;;16.20;99.90;;;;;;5031234;28;20448;-96
2022/09/17 12:57:03;;;;;;;16.95;1.95;;;16.00;99.90;;;;;;5038884;28;20025;-95
2022/09/17 12:59:32;;;;;;;14.55;1.38;;;16.20;99.90;;;;;;5035827;28;20060;-88
2022/09/17 13:02:02;;;;;;;15.07;2.22;;;16.40;99.90;;;;;;5037397;28;20063;-93
2022/09/17 13:04:49;;;;;;;8.18;1.98;;;16.60;99.90;;;;;;5035424;28;20037;-93
2022/09/17 13:07:24;;;;;;;11.77;1.80;;;16.70;99.90;;;;;;5036304;28;20041;-94
2022/09/17 13:10:08;;;;;;;8.32;1.67;;;17.00;99.90;;;;;;5053188;28;20096;-94